Thunder radar more information blitzortung!


Radar de pluja more information rain snow radar


Visita la nostra xarxa de llocs de meteo:

Template documentation
and downloads

And another site



No particular awareness of the weather is required.    There are no Weather-warnings

Pagina Historial Weather Underground text

Diari Resum Desembre 28, 2017 Unitats:  Imperial    Mètric   Tant
« Previous Dia
SegĂźent Dia »
Diari Setmana Mensual Anual Personalitzada
  Maxima: Minima: Media:
Temperatura: TemperatureC °F 3.0 °F 7.8 °F
Punt de rosada: DewpointC °F -2.6 °F -0 °F
Humitat: Humidity % 48 % 58 %
Wind Speed: WindSpeedKMH mph 0.0 mph 4.9 mph
RĂ fegues de vent: WindSpeedGustKMH mph - -
Vent:- - South
Pression baro: PressurehPa in 1005.0 in -
Precipitacions: 0.0 in    
Historical Graphs
 
 
Dades de taula per Desembre 28, 2017
Temps Temperatura Punt de rosada Pression baro Vent Wind Speed RĂ fegues de vent Humitat Rainfall Rate (Hourly)
TemperatureC °F DewpointC °F PressurehPa in Calm     Humidity % HourlyPrecipMM in
00:01 5.0 °F -2.6 °F 1006.0 in SW 9.3 mph 9.3 mph 58 % 0.0 in
00:04 5.0 °F -2.6 °F 1006.0 in WSW 11.1 mph 11.1 mph 58 % 0.0 in
00:06 5.0 °F -2.6 °F 1006.0 in WSW 13.0 mph 13.0 mph 58 % 0.0 in
00:10 4.8 °F -1.7 °F 1005.0 in West 3.2 mph 11.3 mph 63 % 0.0 in
00:20 4.7 °F -1.8 °F 1005.0 in WSW 4.8 mph 9.7 mph 63 % 0.0 in
00:30 4.8 °F -1.7 °F 1005.0 in WSW 3.2 mph 6.4 mph 63 % 0.0 in
00:50 4.6 °F -1.8 °F 1006.0 in SW 1.6 mph 3.2 mph 63 % 0.0 in
01:00 4.5 °F -1.9 °F 1006.0 in SW 3.2 mph 6.4 mph 63 % 0.0 in
01:10 4.5 °F -1.9 °F 1006.0 in SW 4.8 mph 6.4 mph 63 % 0.0 in
01:20 4.6 °F -1.8 °F 1006.0 in SW 3.2 mph 6.4 mph 63 % 0.0 in
01:30 4.5 °F -1.9 °F 1006.0 in SW 1.6 mph 4.8 mph 63 % 0.0 in
01:40 4.5 °F -1.9 °F 1006.0 in WSW 4.8 mph 4.8 mph 63 % 0.0 in
01:50 4.5 °F -1.9 °F 1006.0 in WSW 4.8 mph 4.8 mph 63 % 0.0 in
02:20 4.8 °F -1.4 °F 1006.0 in WSW 8.0 mph 9.7 mph 64 % 0.0 in
02:30 4.7 °F -1.6 °F 1006.0 in WSW 4.8 mph 8.0 mph 64 % 0.0 in
02:40 4.8 °F -1.4 °F 1006.0 in WSW 4.8 mph 8.0 mph 64 % 0.0 in
02:50 5.1 °F -1.2 °F 1006.0 in WSW 4.8 mph 9.7 mph 64 % 0.0 in
03:00 5.4 °F -0.9 °F 1006.0 in WSW 4.8 mph 4.8 mph 64 % 0.0 in
03:10 5.6 °F -0.9 °F 1007.0 in WSW 4.8 mph 4.8 mph 63 % 0.0 in
03:20 5.8 °F -0.7 °F 1006.0 in WSW 3.2 mph 9.7 mph 63 % 0.0 in
03:30 6.0 °F -0.5 °F 1006.0 in WSW 9.7 mph 9.7 mph 63 % 0.0 in
03:40 6.3 °F -0.4 °F 1007.0 in WSW 4.8 mph 9.7 mph 62 % 0.0 in
03:50 6.5 °F -0.3 °F 1007.0 in WSW 9.7 mph 11.3 mph 62 % 0.0 in
04:00 6.7 °F -0.3 °F 1007.0 in WSW 4.8 mph 12.9 mph 61 % 0.0 in
04:10 6.9 °F -0.1 °F 1006.0 in WSW 8.0 mph 9.7 mph 61 % 0.0 in
04:20 7.2 °F -0.1 °F 1007.0 in WSW 9.7 mph 9.7 mph 60 % 0.0 in
04:30 7.6 °F 0.3 °F 1007.0 in WSW 4.8 mph 8.0 mph 60 % 0.0 in
04:40 8.1 °F 0.6 °F 1007.0 in West 4.8 mph 9.7 mph 59 % 0.0 in
04:50 8.3 °F 0.5 °F 1007.0 in West 4.8 mph 8.0 mph 58 % 0.0 in
08:10 12.2 °F 1.5 °F 1006.0 in NW 4.8 mph 9.7 mph 48 % 0.0 in
08:20 12.0 °F 1.3 °F 1006.0 in WNW 4.8 mph 6.4 mph 48 % 0.0 in
08:30 11.9 °F 1.5 °F 1006.0 in WNW 4.8 mph 9.7 mph 49 % 0.0 in
08:40 11.7 °F 1.1 °F 1006.0 in WNW 9.7 mph 9.7 mph 48 % 0.0 in
08:50 11.6 °F 1.2 °F 1006.0 in West 4.8 mph 9.7 mph 49 % 0.0 in
09:00 11.5 °F 1.2 °F 1006.0 in WSW 4.8 mph 9.7 mph 49 % 0.0 in
09:10 11.4 °F 1.1 °F 1006.0 in WSW 3.2 mph 9.7 mph 49 % 0.0 in
09:20 11.4 °F 1.1 °F 1006.0 in WSW 4.8 mph 8.0 mph 49 % 0.0 in
09:30 11.3 °F 1.2 °F 1006.0 in WSW 4.8 mph 8.0 mph 50 % 0.0 in
09:40 11.1 °F 1.1 °F 1006.0 in WSW 11.3 mph 12.9 mph 50 % 0.0 in
09:50 10.9 °F 0.9 °F 1006.0 in WSW 9.7 mph 12.9 mph 50 % 0.0 in
10:00 10.8 °F 0.8 °F 1006.0 in WSW 8.0 mph 14.5 mph 50 % 0.0 in
10:10 10.7 °F 0.9 °F 1006.0 in WSW 4.8 mph 9.7 mph 51 % 0.0 in
10:20 10.6 °F 0.9 °F 1005.0 in West 3.2 mph 6.4 mph 51 % 0.0 in
10:30 10.6 °F 0.9 °F 1005.0 in WSW 4.8 mph 12.9 mph 51 % 0.0 in
10:40 10.4 °F 0.7 °F 1006.0 in West 4.8 mph 4.8 mph 51 % 0.0 in
10:50 10.4 °F 0.9 °F 1006.0 in West 8.0 mph 8.0 mph 52 % 0.0 in
10:52 8.4 °F 0.1 °F 1007.0 in NW 3.7 mph 6.4 mph 56 % 0.0 in
10:53 8.5 °F 0.2 °F 1007.0 in SW 10.3 mph 10.3 mph 56 % 0.0 in
10:54 8.5 °F 0.2 °F 1007.0 in SW 9.3 mph 9.3 mph 56 % 0.0 in
10:59 8.7 °F 0.4 °F 1007.0 in West 7.4 mph 7.4 mph 56 % 0.0 in
11:04 8.9 °F 0.3 °F 1007.0 in WNW 18.5 mph 18.5 mph 55 % 0.0 in
11:05 8.9 °F 0.3 °F 1007.0 in West 18.5 mph 18.5 mph 55 % 0.0 in
11:10 9.0 °F 0.4 °F 1008.0 in WNW 9.3 mph 9.3 mph 55 % 0.0 in
11:14 9.1 °F 0.3 °F 1008.0 in WSW 7.9 mph 7.9 mph 54 % 0.0 in
11:16 9.1 °F 0.3 °F 1008.0 in NW 5.6 mph 7.6 mph 54 % 0.0 in
11:20 10.1 °F 0.7 °F 1006.0 in WSW 3.2 mph 4.8 mph 52 % 0.0 in
11:21 9.3 °F 0.4 °F 1008.0 in WNW 7.4 mph 7.4 mph 54 % 0.0 in
11:22 9.4 °F 0.6 °F 1008.0 in WNW 16.1 mph 16.1 mph 54 % 0.0 in
11:26 9.4 °F 0.6 °F 1007.0 in SSE 5.8 mph 7.6 mph 54 % 0.0 in
11:27 9.5 °F 0.7 °F 1007.0 in SSE 5.8 mph 7.6 mph 54 % 0.0 in
11:32 9.7 °F 0.8 °F 1007.0 in WSW 5.8 mph 5.8 mph 54 % 0.0 in
11:33 10.0 °F 1.1 °F 1007.0 in West 5.6 mph   54 % 0.0 in
11:38 10.1 °F 1.2 °F 1007.0 in WSW 7.4 mph 7.4 mph 54 % 0.0 in
11:39 10.1 °F 1.2 °F 1007.0 in SW 7.4 mph 7.4 mph 54 % 0.0 in
11:40 10.2 °F 1.3 °F 1007.0 in WSW 5.8 mph 5.8 mph 54 % 0.0 in
11:45 10.1 °F 0.9 °F 1007.0 in North 5.6 mph 5.6 mph 53 % 0.0 in
11:49 10.2 °F 1.1 °F 1007.0 in NW 3.7 mph 3.7 mph 53 % 0.0 in
11:50 10.2 °F 1.1 °F 1007.0 in SW 3.7 mph 3.9 mph 53 % 0.0 in
11:55 10.2 °F 1.1 °F 1007.0 in WNW 7.4 mph 7.4 mph 53 % 0.0 in
11:56 10.3 °F 1.1 °F 1007.0 in West 5.8 mph 5.8 mph 53 % 0.0 in
12:01 10.7 °F 1.5 °F 1007.0 in WNW 3.7 mph 3.7 mph 53 % 0.0 in
12:03 10.8 °F 1.6 °F 1007.0 in West 3.9 mph 4.2 mph 53 % 0.0 in
12:07 10.9 °F 1.7 °F 1007.0 in SW 3.9 mph 3.9 mph 53 % 0.0 in
12:08 11.0 °F 1.8 °F 1007.0 in WSW 5.0 mph 5.0 mph 53 % 0.0 in
12:12 10.7 °F 1.2 °F 1007.0 in NNE 3.7 mph 3.7 mph 52 % 0.0 in
12:14 10.8 °F 1.3 °F 1007.0 in WNW 6.1 mph 6.1 mph 52 % 0.0 in
12:18 10.9 °F 1.4 °F 1007.0 in NNW 13.0 mph 13.0 mph 52 % 0.0 in
12:23 10.8 °F 1.3 °F 1006.0 in West 5.6 mph 5.6 mph 52 % 0.0 in
12:28 11.4 °F 1.9 °F 1006.0 in WSW 3.7 mph 3.7 mph 52 % 0.0 in
12:29 11.5 °F 2.0 °F 1006.0 in NE 7.4 mph 7.4 mph 52 % 0.0 in
12:34 11.7 °F 2.2 °F 1006.0 in SW 5.6 mph 5.6 mph 52 % 0.0 in
12:40 11.7 °F 1.9 °F 1006.0 in WNW 7.4 mph 7.4 mph 51 % 0.0 in
12:41 11.7 °F 1.9 °F 1006.0 in SSW 7.4 mph 7.4 mph 51 % 0.0 in
12:42 11.6 °F 1.8 °F 1006.0 in West 7.4 mph 7.4 mph 51 % 0.0 in
12:46 11.7 °F 1.9 °F 1006.0 in ESE 4.2 mph 4.2 mph 51 % 0.0 in
12:51 11.9 °F 2.1 °F 1006.0 in NW 7.4 mph 7.4 mph 51 % 0.0 in
12:56 11.9 °F 2.1 °F 1006.0 in West 6.9 mph 6.9 mph 51 % 0.0 in
12:57 12.0 °F 2.2 °F 1006.0 in NW 7.4 mph 7.4 mph 51 % 0.0 in
13:04 11.9 °F 1.8 °F 1006.0 in WSW 9.3 mph 9.3 mph 50 % 0.0 in
13:09 12.2 °F 2.1 °F 1006.0 in SSW 7.4 mph 7.4 mph 50 % 0.0 in
13:14 12.5 °F 2.3 °F 1006.0 in WNW 9.3 mph 9.3 mph 50 % 0.0 in
13:15 12.5 °F 2.3 °F 1006.0 in WSW 7.4 mph 7.4 mph 50 % 0.0 in
13:17 12.6 °F 2.4 °F 1006.0 in SW 7.4 mph 7.4 mph 50 % 0.0 in
13:21 12.7 °F 2.6 °F 1006.0 in SW 14.0 mph 14.0 mph 50 % 0.0 in
13:26 12.7 °F 2.2 °F 1005.0 in WNW 12.6 mph 12.6 mph 49 % 0.0 in
13:31 12.3 °F 1.6 °F 1005.0 in WNW 9.5 mph 9.5 mph 48 % 0.0 in
13:35 12.0 °F 1.3 °F 1005.0 in West 9.3 mph 9.3 mph 48 % 0.0 in
13:37 11.8 °F 1.1 °F 1005.0 in West 5.6 mph 8.7 mph 48 % 0.0 in
13:42 11.8 °F 1.1 °F 1006.0 in WSW 5.6 mph 5.6 mph 48 % 0.0 in
13:47 11.7 °F 1.1 °F 1006.0 in WNW 3.7 mph 3.7 mph 48 % 0.0 in
13:48 11.7 °F 1.1 °F 1006.0 in WSW 5.8 mph 5.8 mph 48 % 0.0 in
13:51 11.7 °F 1.1 °F 1006.0 in ESE 3.7 mph 4.7 mph 48 % 0.0 in
13:53 11.8 °F 1.1 °F 1006.0 in WNW 5.3 mph 5.3 mph 48 % 0.0 in
13:58 12.0 °F 1.6 °F 1006.0 in West 5.6 mph 5.6 mph 49 % 0.0 in
15:10 6.3 °F -0.7 °F 1010.0 in NE 4.8 mph 4.8 mph 61 % 0.0 in
15:20 6.2 °F -0.6 °F 1010.0 in Calm   4.8 mph 62 % 0.0 in
15:40 6.1 °F -0.7 °F 1010.0 in NNE 3.2 mph 4.8 mph 62 % 0.0 in
17:27 10.0 °F 0.8 °F 1006.0 in SW 5.6 mph 5.6 mph 53 % 0.0 in
17:28 10.0 °F 0.8 °F 1006.0 in WSW 5.6 mph 5.6 mph 53 % 0.0 in
17:33 9.9 °F 0.8 °F 1006.0 in West 3.2 mph 3.2 mph 53 % 0.0 in
17:35 9.9 °F 0.8 °F 1006.0 in West 5.6 mph 5.6 mph 53 % 0.0 in
17:37 9.8 °F 0.7 °F 1006.0 in WSW 3.7 mph 3.9 mph 53 % 0.0 in
17:41 9.7 °F 0.6 °F 1007.0 in West 11.1 mph 11.1 mph 53 % 0.0 in
17:45 9.6 °F 0.5 °F 1007.0 in West 7.4 mph 7.4 mph 53 % 0.0 in
17:47 9.6 °F 0.5 °F 1007.0 in West 7.9 mph 7.9 mph 53 % 0.0 in
17:52 9.4 °F 0.3 °F 1007.0 in WSW 11.1 mph 11.1 mph 53 % 0.0 in
17:57 9.3 °F 0.4 °F 1007.0 in West 9.3 mph 9.3 mph 54 % 0.0 in
17:58 9.3 °F 0.4 °F 1007.0 in West 9.3 mph 9.3 mph 54 % 0.0 in
18:01 9.2 °F 0.4 °F 1007.0 in NW 6.4 mph 6.4 mph 54 % 0.0 in
18:05 9.2 °F 0.4 °F 1007.0 in West 6.1 mph 6.1 mph 54 % 0.0 in
18:10 9.1 °F 0.3 °F 1007.0 in WNW 9.3 mph 9.3 mph 54 % 0.0 in
18:11 9.0 °F 0.2 °F 1007.0 in NE 7.4 mph 7.4 mph 54 % 0.0 in
18:13 9.0 °F 0.2 °F 1007.0 in NNW 1.9 mph   54 % 0.0 in
18:18 8.8 °F 0.0 °F 1007.0 in NNE 3.7 mph 3.7 mph 54 % 0.0 in
18:19 8.8 °F 0.0 °F 1007.0 in NNW 9.7 mph 9.7 mph 54 % 0.0 in
18:24 8.7 °F -0.1 °F 1007.0 in NNW 7.4 mph 7.4 mph 54 % 0.0 in
18:30 4.8 °F -0.8 °F 1011.7 in Calm   3.2 mph 67 % 0.0 in
18:34 8.5 °F -0.1 °F 1007.0 in North 3.7 mph 3.7 mph 55 % 0.0 in
18:35 8.5 °F -0.1 °F 1007.0 in ENE 3.9 mph 3.9 mph 55 % 0.0 in
18:36 8.5 °F -0.1 °F 1007.0 in ESE 5.6 mph 5.6 mph 55 % 0.0 in
18:40 4.6 °F -0.8 °F 1012.8 in East 3.2 mph 4.8 mph 68 % 0.0 in
18:41 8.6 °F 0.1 °F 1008.0 in NNW 1.9 mph   55 % 0.0 in
18:42 8.6 °F 0.1 °F 1008.0 in NNE 1.9 mph   55 % 0.0 in
18:46 8.5 °F -0.1 °F 1008.0 in NNE 3.7 mph 3.7 mph 55 % 0.0 in
18:49 8.5 °F -0.1 °F 1008.0 in West 5.6 mph 5.6 mph 55 % 0.0 in
18:50 4.3 °F -1.3 °F 1012.8 in Calm   3.2 mph 67 % 0.0 in
18:54 8.5 °F -0.1 °F 1009.0 in West 7.4 mph 7.4 mph 55 % 0.0 in
18:56 8.4 °F -0.1 °F 1009.0 in WNW 1.9 mph 2.6 mph 55 % 0.0 in
18:57 8.4 °F -0.1 °F 1009.0 in ENE 3.7 mph 3.7 mph 55 % 0.0 in
19:00 4.1 °F -1.3 °F 1012.8 in Calm     68 % 0.0 in
19:01 8.2 °F -0.3 °F 1009.0 in ENE 1.9 mph 2.3 mph 55 % 0.0 in
19:06 8.0 °F -0.5 °F 1009.0 in Calm     55 % 0.0 in
19:07 8.0 °F -0.5 °F 1009.0 in East 3.5 mph   55 % 0.0 in
19:10 4.1 °F -1.3 °F 1013.8 in Calm   4.8 mph 68 % 0.0 in
19:11 7.8 °F -0.7 °F 1008.0 in NE 1.9 mph   55 % 0.0 in
19:12 7.8 °F -0.7 °F 1008.0 in NE 1.9 mph   55 % 0.0 in
19:17 7.7 °F -0.8 °F 1008.0 in NE 1.9 mph   55 % 0.0 in
19:18 7.7 °F -0.8 °F 1008.0 in ENE 1.9 mph   55 % 0.0 in
19:20 7.6 °F -0.6 °F 1008.0 in NE 1.9 mph 1.9 mph 56 % 0.0 in
19:25 7.5 °F -0.7 °F 1008.0 in NE 1.9 mph   56 % 0.0 in
19:30 7.4 °F -0.8 °F 1008.0 in WNW 1.9 mph   56 % 0.0 in
19:31 7.3 °F -0.9 °F 1008.0 in WNW 1.9 mph 1.9 mph 56 % 0.0 in
19:36 7.2 °F -1.0 °F 1008.0 in North 1.9 mph   56 % 0.0 in
19:40 4.3 °F -0.9 °F 1013.8 in ENE 3.2 mph 4.8 mph 69 % 0.0 in
19:41 7.1 °F -1.1 °F 1009.0 in Calm     56 % 0.0 in
19:43 7.1 °F -1.1 °F 1009.0 in Calm     56 % 0.0 in
19:45 7.0 °F -0.9 °F 1009.0 in WNW 1.9 mph   57 % 0.0 in
19:48 6.9 °F -1.1 °F 1009.0 in NNE 3.7 mph 3.7 mph 57 % 0.0 in
19:50 4.2 °F -1.2 °F 1013.8 in NNE 4.8 mph 6.4 mph 68 % 0.0 in
19:51 6.9 °F -1.1 °F 1009.0 in NNE 3.7 mph 3.7 mph 57 % 0.0 in
19:54 6.9 °F -1.1 °F 1008.0 in NNE 4.7 mph 4.7 mph 57 % 0.0 in
19:58 6.9 °F -0.8 °F 1008.0 in NE 3.7 mph 3.7 mph 58 % 0.0 in
20:00 4.2 °F -1.2 °F 1013.8 in NNE 1.6 mph 8.0 mph 68 % 0.0 in
20:03 6.8 °F -0.9 °F 1008.0 in NE 5.6 mph 5.6 mph 58 % 0.0 in
20:08 6.7 °F -1.0 °F 1008.0 in ENE 4.7 mph 4.7 mph 58 % 0.0 in
20:09 6.7 °F -1.0 °F 1008.0 in East 5.3 mph 5.3 mph 58 % 0.0 in
20:10 4.3 °F -1.1 °F 1013.8 in North 1.6 mph 3.2 mph 68 % 0.0 in
20:20 4.4 °F -0.8 °F 1013.8 in NW 3.2 mph 6.4 mph 69 % 0.0 in
20:30 4.6 °F -0.6 °F 1013.8 in WNW 1.6 mph 1.6 mph 69 % 0.0 in
20:40 4.6 °F -0.6 °F 1012.8 in SSW 1.6 mph 3.2 mph 69 % 0.0 in
20:50 4.4 °F -0.8 °F 1013.8 in Calm   3.2 mph 69 % 0.0 in
21:00 4.3 °F -0.9 °F 1013.8 in Calm     69 % 0.0 in
21:10 4.2 °F -1.0 °F 1013.8 in Calm     69 % 0.0 in
21:20 4.0 °F -1.2 °F 1014.8 in SW 3.2 mph 3.2 mph 69 % 0.0 in
21:30 3.8 °F -1.2 °F 1014.8 in Calm     70 % 0.0 in
21:40 3.7 °F -1.3 °F 1013.8 in Calm   3.2 mph 70 % 0.0 in
21:42 6.1 °F -0.4 °F 1010.0 in NNE 7.4 mph 7.4 mph 63 % 0.0 in
21:43 6.1 °F -0.4 °F 1010.0 in NNE 7.4 mph 7.4 mph 63 % 0.0 in
21:45 6.1 °F -0.4 °F 1010.0 in ESE 5.6 mph 5.6 mph 63 % 0.0 in
21:50 6.0 °F -0.5 °F 1010.0 in ESE 3.7 mph 3.7 mph 63 % 0.0 in
21:51 6.0 °F -0.5 °F 1010.0 in ENE 3.7 mph 3.7 mph 63 % 0.0 in
21:52 6.0 °F -0.5 °F 1010.0 in NNE 1.9 mph   63 % 0.0 in
21:56 5.9 °F -0.6 °F 1010.0 in ENE 3.7 mph 3.7 mph 63 % 0.0 in
22:00 5.9 °F -0.6 °F 1010.0 in NW 1.9 mph   63 % 0.0 in
22:02 5.8 °F -0.7 °F 1010.0 in ENE 2.6 mph 2.6 mph 63 % 0.0 in
22:03 5.8 °F -0.7 °F 1010.0 in NNE 1.9 mph 1.9 mph 63 % 0.0 in
22:10 5.8 °F -0.7 °F 1010.0 in ENE 3.7 mph   63 % 0.0 in
22:15 5.6 °F -0.9 °F 1010.0 in ENE 5.6 mph 5.6 mph 63 % 0.0 in
22:20 5.5 °F -1.0 °F 1010.0 in NNE 2.6 mph   63 % 0.0 in
22:25 5.4 °F -0.9 °F 1010.7 in NE 3.9 mph 3.9 mph 64 % 0.0 in
22:26 5.4 °F -0.9 °F 1010.7 in NE 3.9 mph 3.9 mph 64 % 0.0 in
22:30 5.3 °F -0.9 °F 1010.7 in NE 1.6 mph 3.2 mph 64 % 0.0 in
22:34 5.2 °F -1.1 °F 1010.7 in NE 3.7 mph 3.7 mph 64 % 0.0 in
22:39 5.1 °F -1.2 °F 1010.7 in NNE 5.6 mph 5.6 mph 64 % 0.0 in
22:40 5.1 °F -1.2 °F 1010.7 in NNE 5.8 mph 5.8 mph 64 % 0.0 in
22:45 5.1 °F -1.2 °F 1010.7 in NW 1.9 mph   64 % 0.0 in
22:46 5.2 °F -1.1 °F 1010.7 in WNW 1.9 mph   64 % 0.0 in
22:50 3.2 °F -1.4 °F 1014.8 in North 3.2 mph 4.8 mph 72 % 0.0 in
22:51 5.2 °F -1.1 °F 1010.7 in North 1.9 mph   64 % 0.0 in
22:55 5.2 °F -1.1 °F 1011.7 in WNW 1.9 mph 1.9 mph 64 % 0.0 in
22:58 5.2 °F -1.1 °F 1011.7 in NE 3.7 mph 3.7 mph 64 % 0.0 in
23:00 5.3 °F -0.8 °F 1011.7 in NE 2.3 mph 2.3 mph 65 % 0.0 in
23:04 5.3 °F -0.8 °F 1011.7 in NNE 3.7 mph   65 % 0.0 in
23:06 5.3 °F -0.8 °F 1011.7 in NNE 3.7 mph 3.7 mph 65 % 0.0 in
23:11 5.2 °F -0.8 °F 1011.7 in NE 2.3 mph 2.3 mph 65 % 0.0 in
23:12 5.2 °F -0.8 °F 1011.7 in NW 2.3 mph 2.3 mph 65 % 0.0 in
23:13 5.2 °F -0.8 °F 1011.7 in NW 1.9 mph 1.9 mph 65 % 0.0 in
23:17 5.2 °F -0.8 °F 1011.7 in NNE 2.6 mph 2.6 mph 65 % 0.0 in
23:20 5.2 °F -0.8 °F 1011.7 in NNE 3.2 mph 3.2 mph 65 % 0.0 in
23:24 5.2 °F -0.8 °F 1010.7 in NNE 3.7 mph 3.7 mph 65 % 0.0 in
23:29 5.2 °F -0.8 °F 1010.7 in North 1.9 mph 1.9 mph 65 % 0.0 in
23:30 3.0 °F -1.6 °F 1013.8 in Calm   1.6 mph 72 % 0.0 in
23:34 5.2 °F -0.7 °F 1010.7 in NNE 1.9 mph   66 % 0.0 in
23:36 5.2 °F -0.7 °F 1010.7 in NNE 1.9 mph 1.9 mph 66 % 0.0 in
23:40 5.2 °F -0.7 °F 1011.7 in NE 1.9 mph 1.9 mph 66 % 0.0 in
23:42 5.2 °F -0.7 °F 1011.7 in NNE 1.9 mph 1.9 mph 66 % 0.0 in
23:47 5.1 °F -0.9 °F 1011.7 in WNW 1.9 mph   65 % 0.0 in
23:49 5.1 °F -0.7 °F 1011.7 in ENE 2.3 mph   66 % 0.0 in
23:50 5.1 °F -0.7 °F 1011.7 in North 2.3 mph 2.3 mph 66 % 0.0 in
23:55 5.1 °F -0.7 °F 1011.7 in NE 5.6 mph 5.6 mph 66 % 0.0 in
23:56 5.1 °F -0.7 °F 1011.7 in NNE 3.9 mph 3.9 mph 66 % 0.0 in
Meteo Sesrovires
Elogis d' Weather Underground - 2 mb

Guio original per  Jim McMurry - jmcmurry@mwt.net Adaptat per a la plantilla per  Wim van der Kuil - Leuven-Template.eu

Trobareu la nostra informacio del temps tambe a:

Weather Underground

AWEKAS